Airfield :
LOGIN :

Register | Disclaimer

   EN    FR    IT 

 










Legend :    VFR   Marginal VFR   IFR   Intensive IFR   Very Intensive IFR
Visi :
Ceiling :
>= 8 km
>= 3000ft
5 to 8 km
1000 to 3000 ft
1500m to 5 km
500 to 1000 ft
800 to 1500m
200 to 500 ft
< 800m
< 200 ft
Symbols :   Thunderstorms  Fog  Heavy snow  Heavy precipitations  Wind > 20 kt
SIGMETs :     Misc.  Thunderstorms  Icing  Turbulence  Mountain Waves  Volcanic Ashes






- Airport Elevation : 580 ft


LFOA - Avord

CURRENT METAR :
  • 300330Z AUTO 04006KT 9999 OVC006 06/06 Q1020

EXPIRED METARs :
  • 300300Z AUTO 03003KT 9000 OVC006 06/06 Q1020
  • 300230Z AUTO 33002KT 7000 BKN006 OVC043 06/06 Q1020
  • 300200Z AUTO 28004KT 7000 2800 FEW002 SCT008 OVC042 06/06 Q1021
  • 300130Z AUTO 00000KT 4400 BR FEW001 OVC040 06/06 Q1020
  • 300100Z AUTO 31001KT 3900 BR SCT001 SCT009 OVC038 06/06 Q1020

TAF TAF LFOA
Valid from the 29 at 21:00 until the 30 at 21:00 UTC


292000Z 2921/3021 VRB02KT 5000 BR OVC003 TX08/3014Z TN02/3006Z
TEMPO 2921/3007 2000 BR OVC001
PROB40
TEMPO 2921/3007 0500 FG VV///
BECMG 3007/3009 9999 NSW
BECMG 3012/3015 05010KT BKN015
BECMG 3018/3021 BKN007



MET'MAP, your aeronautical weather chart ! - Copyright ORBIFLY December 2007 - Disclaimer

ORBIFLY MET'MAP TEAM :

Programming & Development : Alexandra Zaïnal
Original concept : Baudouin d'Aumeries
Technical & hardware support : Manuel Goepfert
Assistance : Marc-Olivier Méhu




SOURCES & CREDITS :

   NOAA